createdAt,value
2018-07-05T00:02:23.681Z,100753.00
2018-07-05T00:07:34.008Z,100759.00
2018-07-05T00:12:44.317Z,100749.00
2018-07-05T00:17:48.815Z,100742.00
2018-07-05T00:22:59.195Z,100739.00
2018-07-05T00:28:09.587Z,100734.00
2018-07-05T00:33:20.033Z,100737.00
2018-07-05T00:38:30.541Z,100737.00
2018-07-05T00:43:41.017Z,100738.00
2018-07-05T00:48:51.198Z,100739.00
2018-07-05T00:54:01.768Z,100742.00
2018-07-05T00:59:12.152Z,100746.00
2018-07-05T01:04:22.587Z,100744.00
2018-07-05T01:09:33.083Z,100747.00
2018-07-05T01:14:43.547Z,100745.00
2018-07-05T01:19:53.830Z,100747.00
2018-07-05T01:25:04.306Z,100753.00
2018-07-05T01:30:14.989Z,100756.00
2018-07-05T01:35:25.359Z,100745.00
2018-07-05T01:40:35.721Z,100744.00
2018-07-05T01:45:46.011Z,100732.00
2018-07-05T01:50:56.543Z,100736.00
2018-07-05T01:56:06.816Z,100737.00
2018-07-05T02:01:11.295Z,100744.00
2018-07-05T02:06:21.728Z,100750.00
2018-07-05T02:11:26.257Z,100747.00
2018-07-05T02:16:36.660Z,100741.00
2018-07-05T02:21:47.760Z,100745.00
2018-07-05T02:26:58.175Z,100746.00
2018-07-05T02:32:08.546Z,100736.00
2018-07-05T02:37:24.670Z,100738.00
2018-07-05T02:42:35.162Z,100732.00
2018-07-05T02:47:39.609Z,100737.00
2018-07-05T02:52:50.029Z,100728.00
2018-07-05T02:58:00.327Z,100722.00
2018-07-05T03:03:10.666Z,100717.00
2018-07-05T03:08:21.059Z,100724.00
2018-07-05T03:13:31.752Z,100717.00
2018-07-05T03:18:42.184Z,100704.00
2018-07-05T03:23:52.668Z,100714.00
2018-07-05T03:29:03.000Z,100720.00
2018-07-05T03:34:13.262Z,100712.00
2018-07-05T03:39:23.724Z,100710.00
2018-07-05T03:44:34.024Z,100729.00
2018-07-05T03:49:44.424Z,100740.00
2018-07-05T03:54:54.621Z,100745.00
2018-07-05T04:00:04.970Z,100755.00
2018-07-05T04:05:15.880Z,100749.00
2018-07-05T04:10:20.738Z,100739.00
2018-07-05T04:15:31.163Z,100741.00
2018-07-05T04:20:41.550Z,100750.00
2018-07-05T04:25:51.849Z,100740.00
2018-07-05T04:31:02.179Z,100727.00
2018-07-05T04:36:12.673Z,100739.00
2018-07-05T04:41:22.988Z,100740.00
2018-07-05T04:46:33.233Z,100749.00
2018-07-05T04:51:43.588Z,100744.00
2018-07-05T04:56:53.949Z,100741.00
2018-07-05T05:02:04.338Z,100748.00
2018-07-05T05:07:14.658Z,100744.00
2018-07-05T05:12:25.044Z,100734.00
2018-07-05T05:17:35.379Z,100743.00
2018-07-05T05:22:45.724Z,100742.00
2018-07-05T05:27:56.211Z,100752.00
2018-07-05T05:33:06.502Z,100738.00
2018-07-05T05:38:16.761Z,100737.00
2018-07-05T05:43:27.033Z,100717.00
2018-07-05T05:48:37.315Z,100713.00
2018-07-05T05:53:47.652Z,100725.00
2018-07-05T05:58:57.980Z,100740.00
2018-07-05T06:04:08.362Z,100733.00
2018-07-05T06:09:18.717Z,100732.00
2018-07-05T06:14:29.042Z,100740.00
2018-07-05T06:19:39.450Z,100742.00
2018-07-05T06:24:49.775Z,100734.00
2018-07-05T06:29:54.391Z,100732.00
2018-07-05T06:35:04.846Z,100729.00
2018-07-05T06:40:15.343Z,100731.00
2018-07-05T06:45:25.868Z,100733.00
2018-07-05T06:50:36.129Z,100737.00
2018-07-05T06:55:46.594Z,100737.00
2018-07-05T07:00:57.071Z,100728.00
2018-07-05T07:06:07.386Z,100736.00
2018-07-05T07:11:17.832Z,100721.00
2018-07-05T07:16:28.152Z,100734.00
2018-07-05T07:21:38.463Z,100752.00
2018-07-05T07:26:48.801Z,100762.00
2018-07-05T07:31:59.281Z,100759.00
2018-07-05T07:37:03.671Z,100769.00
2018-07-05T07:41:55.236Z,100768.00
2018-07-05T07:46:47.590Z,100772.00
2018-07-05T07:51:39.164Z,100767.00
2018-07-05T07:56:30.756Z,100777.00
2018-07-05T08:01:22.343Z,100762.00
2018-07-05T08:06:13.921Z,100776.00
2018-07-05T08:11:05.494Z,100781.00
2018-07-05T08:15:57.068Z,100775.00
2018-07-05T08:20:49.449Z,100774.00
2018-07-05T08:25:41.173Z,100768.00
2018-07-05T08:30:32.749Z,100770.00
2018-07-05T08:35:24.324Z,100771.00
2018-07-05T08:40:15.933Z,100765.00
2018-07-05T08:45:07.505Z,100763.00
2018-07-05T08:49:59.568Z,100766.00
2018-07-05T08:54:51.156Z,100758.00
2018-07-05T08:59:42.806Z,100754.00
2018-07-05T09:04:34.586Z,100755.00
2018-07-05T09:09:26.204Z,100760.00
2018-07-05T09:14:17.832Z,100751.00
2018-07-05T09:19:09.428Z,100753.00
2018-07-05T09:24:01.022Z,100748.00
2018-07-05T09:28:52.860Z,100744.00
2018-07-05T09:33:44.527Z,100728.00
2018-07-05T09:38:36.112Z,100737.00
2018-07-05T09:43:27.932Z,100739.00
2018-07-05T09:48:19.550Z,100736.00
2018-07-05T09:53:11.131Z,100736.00
2018-07-05T09:58:02.735Z,100738.00
2018-07-05T10:02:54.344Z,100738.00
2018-07-05T10:07:45.938Z,100733.00
2018-07-05T10:12:37.513Z,100746.00
2018-07-05T10:17:29.092Z,100745.00
2018-07-05T10:22:20.843Z,100745.00
2018-07-05T10:27:12.436Z,100748.00
2018-07-05T10:32:22.864Z,100751.00
2018-07-05T10:37:20.407Z,100747.00
2018-07-05T10:42:30.703Z,100752.00
2018-07-05T10:47:41.058Z,100746.00
2018-07-05T10:52:51.593Z,100749.00
2018-07-05T10:58:02.149Z,100745.00
2018-07-05T11:03:06.634Z,100752.00
2018-07-05T11:08:17.063Z,100741.00
2018-07-05T11:13:21.596Z,100739.00
2018-07-05T11:18:31.800Z,100731.00
2018-07-05T11:23:42.104Z,100733.00
2018-07-05T11:28:52.418Z,100734.00
2018-07-05T11:34:02.756Z,100727.00
2018-07-05T11:39:13.234Z,100732.00
2018-07-05T11:44:23.455Z,100728.00
2018-07-05T11:49:27.811Z,100720.00
2018-07-05T11:54:38.158Z,100725.00
2018-07-05T11:59:48.612Z,100722.00
2018-07-05T12:04:59.080Z,100720.00
2018-07-05T12:10:09.380Z,100723.00
2018-07-05T12:15:19.650Z,100723.00
2018-07-05T12:20:29.991Z,100713.00
2018-07-05T12:25:40.238Z,100723.00
2018-07-05T12:30:50.665Z,100722.00
2018-07-05T12:36:00.987Z,100731.00
2018-07-05T12:41:11.291Z,100729.00
2018-07-05T12:46:21.600Z,100730.00
2018-07-05T12:51:31.854Z,100736.00
2018-07-05T12:56:42.120Z,100737.00
2018-07-05T13:01:52.446Z,100734.00
2018-07-05T13:06:56.995Z,100736.00
2018-07-05T13:12:07.357Z,100740.00
2018-07-05T13:17:17.612Z,100743.00
2018-07-05T13:22:27.883Z,100749.00
2018-07-05T13:27:38.595Z,100749.00
2018-07-05T13:32:49.132Z,100743.00
2018-07-05T13:37:59.510Z,100739.00
2018-07-05T13:43:09.920Z,100747.00
2018-07-05T13:48:14.442Z,100754.00
2018-07-05T13:53:24.721Z,100757.00
2018-07-05T13:58:29.303Z,100760.00
2018-07-05T14:03:39.742Z,100753.00
2018-07-05T14:08:50.004Z,100758.00
2018-07-05T14:14:00.326Z,100754.00
2018-07-05T14:19:10.771Z,100754.00
2018-07-05T14:24:15.385Z,100758.00
2018-07-05T14:29:25.669Z,100752.00
2018-07-05T14:34:35.812Z,100753.00
2018-07-05T14:39:46.052Z,100754.00
2018-07-05T14:44:56.645Z,100759.00
2018-07-05T14:50:06.940Z,100757.00
2018-07-05T14:55:17.275Z,100759.00
2018-07-05T15:00:27.439Z,100766.00
2018-07-05T15:05:37.892Z,100760.00
2018-07-05T15:10:48.330Z,100763.00
2018-07-05T15:15:58.817Z,100755.00
2018-07-05T15:21:09.128Z,100764.00
2018-07-05T15:26:19.430Z,100768.00
2018-07-05T15:31:29.782Z,100765.00
2018-07-05T15:36:34.222Z,100766.00
2018-07-05T15:41:38.729Z,100768.00
2018-07-05T15:46:49.672Z,100764.00
2018-07-05T15:52:00.137Z,100753.00
2018-07-05T15:57:10.333Z,100746.00
2018-07-05T16:02:20.766Z,100747.00
2018-07-05T16:07:31.130Z,100749.00
2018-07-05T16:12:41.498Z,100744.00
2018-07-05T16:17:51.717Z,100744.00
2018-07-05T16:23:01.943Z,100742.00
2018-07-05T16:28:12.292Z,100735.00
2018-07-05T16:33:22.696Z,100734.00
2018-07-05T16:38:33.086Z,100731.00
2018-07-05T16:43:43.533Z,100736.00
2018-07-05T16:48:53.884Z,100733.00
2018-07-05T16:54:04.265Z,100734.00
2018-07-05T16:59:14.476Z,100723.00
2018-07-05T17:04:24.796Z,100734.00
2018-07-05T17:09:35.310Z,100728.00
2018-07-05T17:14:45.666Z,100729.00
2018-07-05T17:19:56.637Z,100727.00
2018-07-05T17:25:06.942Z,100735.00
2018-07-05T17:30:17.336Z,100734.00
2018-07-05T17:35:27.607Z,100735.00
2018-07-05T17:40:38.058Z,100742.00
2018-07-05T17:45:48.442Z,100718.00
2018-07-05T17:52:02.342Z,100752.00
2018-07-05T17:57:12.616Z,100754.00
2018-07-05T18:02:23.010Z,100755.00
2018-07-05T18:07:27.482Z,100759.00
2018-07-05T18:12:37.917Z,100759.00
2018-07-05T18:17:48.265Z,100761.00
2018-07-05T18:22:58.501Z,100766.00
2018-07-05T18:28:08.942Z,100771.00
2018-07-05T18:33:19.262Z,100773.00
2018-07-05T18:38:29.573Z,100771.00
2018-07-05T18:43:39.912Z,100779.00
2018-07-05T18:48:50.282Z,100790.00
2018-07-05T18:54:00.743Z,100788.00
2018-07-05T18:59:11.099Z,100794.00
2018-07-05T19:04:21.579Z,100802.00
2018-07-05T19:09:31.923Z,100810.00
2018-07-05T19:14:42.193Z,100818.00
2018-07-05T19:19:54.664Z,100823.00
2018-07-05T19:25:05.173Z,100825.00
2018-07-05T19:30:15.530Z,100830.00
2018-07-05T19:35:26.047Z,100837.00
2018-07-05T19:40:36.534Z,100845.00
2018-07-05T19:45:46.842Z,100858.00
2018-07-05T19:50:57.155Z,100858.00
2018-07-05T19:56:07.321Z,100858.00
2018-07-05T20:01:17.605Z,100878.00
2018-07-05T20:06:28.672Z,100884.00
2018-07-05T20:11:43.616Z,100882.00
2018-07-05T20:16:53.888Z,100889.00
2018-07-05T20:22:08.478Z,100894.00
2018-07-05T20:27:18.784Z,100902.00
2018-07-05T20:32:29.273Z,100909.00
2018-07-05T20:37:41.307Z,100914.00
2018-07-05T20:42:51.739Z,100921.00
2018-07-05T20:47:56.344Z,100930.00
2018-07-05T20:53:06.908Z,100937.00
2018-07-05T20:58:17.172Z,100945.00
2018-07-05T21:03:27.490Z,100948.00
2018-07-05T21:08:38.065Z,100959.00
2018-07-05T21:13:48.532Z,100971.00
2018-07-05T21:18:59.004Z,100974.00
2018-07-05T21:24:09.390Z,100983.00
2018-07-05T21:29:19.765Z,100993.00
2018-07-05T21:34:30.130Z,100994.00
2018-07-05T21:39:40.525Z,100999.00
2018-07-05T21:44:50.871Z,101003.00
2018-07-05T21:50:01.291Z,101007.00
2018-07-05T21:55:11.751Z,101016.00
2018-07-05T22:00:22.104Z,101016.00
2018-07-05T22:05:32.642Z,101015.00
2018-07-05T22:10:37.161Z,101022.00
2018-07-05T22:15:47.451Z,101022.00
2018-07-05T22:20:57.730Z,101026.00
2018-07-05T22:26:13.773Z,101036.00
2018-07-05T22:31:29.782Z,101040.00
2018-07-05T22:36:40.119Z,101049.00
2018-07-05T22:41:44.601Z,101053.00
2018-07-05T22:46:54.795Z,101058.00
2018-07-05T22:52:05.010Z,101063.00
2018-07-05T22:57:15.380Z,101064.00
2018-07-05T23:02:20.472Z,101070.00
2018-07-05T23:07:30.903Z,101074.00
2018-07-05T23:12:35.443Z,101082.00
2018-07-05T23:17:39.959Z,101083.00
2018-07-05T23:22:50.221Z,101086.00
2018-07-05T23:28:00.376Z,101093.00
2018-07-05T23:33:10.580Z,101090.00
2018-07-05T23:38:20.822Z,101097.00
2018-07-05T23:43:31.136Z,101107.00
2018-07-05T23:48:41.487Z,101106.00
2018-07-05T23:53:51.839Z,101104.00
2018-07-05T23:59:02.128Z,101110.00
